Terminal Aerodrome Forecast
Issued by NWS

Home | Current Version | Previous Version | Text Only | Print | Product List | Glossary On
Versions: 1 2 3 4 5 6 7 8 9 10 11 12 13 14 15 16
000
FTUS44 KTSA 211339 AAA
TAFMLC
TAF AMD
KMLC 211339Z 2114/2212 19010G18KT P6SM SCT023 BKN045
      TEMPO 2114/2118 BKN020
     FM212100 19015G23KT P6SM VCSH BKN025
     FM220200 22012G22KT P6SM BKN100=

USA.gov is the U.S. government's official web portal to all federal, state and local government web resources and services.